Terminal Aerodrome Forecast
Issued by NWS

Home | Current Version | Previous Version | Text Only | Print | Product List | Glossary On
Versions: 1 2 3 4 5 6 7 8 9 10 11 12
516
FTUS45 KRIW 032324
TAFBPI
TAF
KBPI 032324Z 0400/0424 35010KT P6SM FEW120 SCT250
     FM040900 34005KT P6SM BKN070
     FM041300 23008KT P6SM VCSH SCT020 BKN040
     FM041900 VRB06KT 5SM -SN BR SCT015 OVC030=

USA.gov is the U.S. government's official web portal to all federal, state and local government web resources and services.